Time;durP1;ratioP1;P1;durP2;ratioP2;P2;SDS_P1;SDS_P2;PMS_P1;PMS_P2;Temp;Humidity;BMP_temperature;BMP_pressure;BME280_temperature;BME280_humidity;BME280_pressure;Samples;Min_cycle;Max_cycle;Signal;HPM_P1;HPM_P2
2021/08/12 00:00:47;;;;;;;22.17;17.70;;;;;;;;;;5074581;28;20488;-54
2021/08/12 00:03:14;;;;;;;31.20;24.77;;;;;;;;;;5075083;28;20453;-54
2021/08/12 00:05:43;;;;;;;18.87;13.50;;;;;;;;;;5075509;28;20813;-56
2021/08/12 00:08:36;;;;;;;27.03;19.00;;;;;;;;;;5074424;28;20925;-54
2021/08/12 00:11:04;;;;;;;43.27;23.37;;;;;;;;;;5073735;28;20535;-56
2021/08/12 00:13:31;;;;;;;34.07;23.60;;;;;;;;;;5074885;28;20475;-56
2021/08/12 00:16:07;;;;;;;27.87;19.57;;;;;;;;;;5075091;28;20468;-54
2021/08/12 00:18:35;;;;;;;41.60;24.17;;;;;;;;;;5075002;28;20449;-55
2021/08/12 00:21:03;;;;;;;26.90;15.97;;;;;;;;;;5075494;28;20456;-57
2021/08/12 00:24:04;;;;;;;23.63;15.50;;;;;;;;;;5074973;28;20448;-52
2021/08/12 00:26:31;;;;;;;42.23;25.20;;;;;;;;;;5075332;28;20496;-54
2021/08/12 00:28:59;;;;;;;18.00;14.03;;;;;;;;;;5075614;28;20453;-53
2021/08/12 00:31:45;;;;;;;22.33;16.60;;;;;;;;;;5075650;28;20461;-54
2021/08/12 00:34:12;;;;;;;66.90;54.63;;;;;;;;;;5072711;28;20527;-55
2021/08/12 00:36:41;;;;;;;78.00;64.90;;;;;;;;;;5075086;28;20453;-56
2021/08/12 00:39:32;;;;;;;16.67;11.20;;;;;;;;;;5075590;28;20465;-57
2021/08/12 00:42:00;;;;;;;11.33;8.73;;;;;;;;;;5060784;28;20486;-53
2021/08/12 00:44:27;;;;;;;9.60;8.33;;;;;;;;;;5054904;28;20466;-56
2021/08/12 00:47:00;;;;;;;10.20;8.77;;;;;;;;;;5054871;28;20497;-54
2021/08/12 00:49:27;;;;;;;11.30;8.13;;;;;;;;;;5054543;28;20468;-53
2021/08/12 00:51:56;;;;;;;11.53;8.77;;;;;;;;;;5055188;28;20660;-53
2021/08/12 00:54:25;;;;;;;11.87;8.40;;;;;;;;;;5054364;28;20462;-53
2021/08/12 00:56:52;;;;;;;9.90;8.70;;;;;;;;;;5055131;28;20450;-53
2021/08/12 00:59:19;;;;;;;10.53;9.03;;;;;;;;;;5054241;28;20581;-51
2021/08/12 01:01:52;;;;;;;10.33;7.87;;;;;;;;;;5054059;28;20445;-55
2021/08/12 01:04:23;;;;;;;10.40;8.50;;;;;;;;;;5053823;28;20472;-56
2021/08/12 01:06:53;;;;;;;9.33;7.97;;;;;;;;;;5053773;28;20493;-53
2021/08/12 01:15:01;;;;;;;9.30;7.57;;;;;;;;;;5051169;28;20486;-54
2021/08/12 01:17:33;;;;;;;12.50;9.60;;;;;;;;;;5052222;28;20479;-56
2021/08/12 01:20:25;;;;;;;11.80;10.50;;;;;;;;;;5052500;28;20899;-57
2021/08/12 01:22:54;;;;;;;12.83;11.33;;;;;;;;;;5053827;28;20462;-53
2021/08/12 01:25:24;;;;;;;18.63;12.73;;;;;;;;;;5052777;28;20462;-52
2021/08/12 01:27:52;;;;;;;15.10;11.80;;;;;;;;;;5053126;28;20489;-56
2021/08/12 01:30:23;;;;;;;15.80;13.83;;;;;;;;;;5052609;28;20454;-53
2021/08/12 01:32:56;;;;;;;15.23;12.90;;;;;;;;;;5052851;28;20449;-53
2021/08/12 01:35:25;;;;;;;15.30;13.20;;;;;;;;;;5052885;28;20462;-57
2021/08/12 01:37:54;;;;;;;13.60;11.73;;;;;;;;;;5052996;28;20457;-54
2021/08/12 01:40:31;;;;;;;12.83;11.33;;;;;;;;;;5053293;28;20461;-57
2021/08/12 01:43:00;;;;;;;12.67;11.37;;;;;;;;;;5052891;28;20484;-58
2021/08/12 01:45:27;;;;;;;13.40;10.97;;;;;;;;;;5052409;28;20484;-54
2021/08/12 01:48:02;;;;;;;11.57;9.73;;;;;;;;;;5052812;28;20484;-56
2021/08/12 01:50:31;;;;;;;11.80;10.07;;;;;;;;;;5052254;28;20465;-53
2021/08/12 01:52:59;;;;;;;12.27;10.20;;;;;;;;;;5052423;28;20492;-54
2021/08/12 01:55:33;;;;;;;12.80;9.70;;;;;;;;;;5052466;28;20462;-55
2021/08/12 01:58:01;;;;;;;12.33;9.50;;;;;;;;;;5062734;28;20504;-55
2021/08/12 02:00:30;;;;;;;14.83;9.50;;;;;;;;;;5072250;28;20484;-52
2021/08/12 02:02:58;;;;;;;13.37;9.30;;;;;;;;;;5072384;28;20476;-53
2021/08/12 02:05:25;;;;;;;9.83;8.33;;;;;;;;;;5073409;28;20487;-54
2021/08/12 02:08:12;;;;;;;10.00;8.60;;;;;;;;;;5073444;28;20470;-55
2021/08/12 02:10:39;;;;;;;16.63;8.80;;;;;;;;;;5073058;28;20457;-57
2021/08/12 02:13:07;;;;;;;12.63;7.10;;;;;;;;;;5072974;28;20461;-53
2021/08/12 02:15:42;;;;;;;13.27;8.40;;;;;;;;;;5072361;28;20464;-53
2021/08/12 02:18:10;;;;;;;12.10;8.80;;;;;;;;;;5071380;28;20552;-53
2021/08/12 02:20:37;;;;;;;13.20;7.50;;;;;;;;;;5073177;28;20474;-56
2021/08/12 02:23:28;;;;;;;8.90;7.20;;;;;;;;;;5072293;28;20548;-54
2021/08/12 02:25:59;;;;;;;19.00;7.80;;;;;;;;;;5072443;28;20496;-53
2021/08/12 02:28:27;;;;;;;13.47;7.73;;;;;;;;;;5073178;28;20433;-57
2021/08/12 02:30:56;;;;;;;10.60;7.73;;;;;;;;;;5073731;28;20433;-57
2021/08/12 02:33:25;;;;;;;9.47;7.77;;;;;;;;;;5076347;28;20471;-56
2021/08/12 02:35:53;;;;;;;13.97;8.80;;;;;;;;;;5076385;28;20479;-56
2021/08/12 02:38:33;;;;;;;9.93;8.37;;;;;;;;;;5076529;28;20469;-55
2021/08/12 02:41:02;;;;;;;11.83;8.17;;;;;;;;;;5074613;28;20743;-57
2021/08/12 02:43:30;;;;;;;14.57;7.67;;;;;;;;;;5077328;28;20453;-59
2021/08/12 02:46:00;;;;;;;9.37;7.20;;;;;;;;;;5076791;28;20552;-56
2021/08/12 02:48:29;;;;;;;11.70;7.70;;;;;;;;;;5076322;28;20490;-56
2021/08/12 02:50:58;;;;;;;9.77;7.20;;;;;;;;;;5075199;28;20457;-58
2021/08/12 02:53:26;;;;;;;9.03;6.80;;;;;;;;;;5076566;28;20499;-53
2021/08/12 02:55:54;;;;;;;10.60;7.73;;;;;;;;;;5075942;28;20488;-53
2021/08/12 02:58:22;;;;;;;11.23;7.80;;;;;;;;;;5075159;28;20457;-54
2021/08/12 03:00:57;;;;;;;8.93;7.13;;;;;;;;;;5074308;28;20527;-54
2021/08/12 03:03:24;;;;;;;12.83;6.80;;;;;;;;;;5073990;28;20463;-57
2021/08/12 03:05:51;;;;;;;10.87;8.00;;;;;;;;;;5074293;28;20499;-54
2021/08/12 03:08:20;;;;;;;11.73;7.40;;;;;;;;;;5074108;28;20460;-55
2021/08/12 03:10:47;;;;;;;8.23;6.70;;;;;;;;;;5058443;28;20487;-56
2021/08/12 03:13:15;;;;;;;9.63;7.43;;;;;;;;;;5076157;28;20472;-53
2021/08/12 03:15:45;;;;;;;9.63;7.23;;;;;;;;;;5075202;28;20448;-55
2021/08/12 03:18:13;;;;;;;8.20;6.67;;;;;;;;;;5076251;28;20486;-55
2021/08/12 03:20:51;;;;;;;9.50;7.20;;;;;;;;;;5076259;28;20483;-57
2021/08/12 03:23:20;;;;;;;10.03;7.60;;;;;;;;;;5074767;28;20490;-56
2021/08/12 03:25:47;;;;;;;12.33;7.10;;;;;;;;;;5075824;28;20502;-57
2021/08/12 03:28:39;;;;;;;14.60;8.53;;;;;;;;;;5064881;28;20450;-59
2021/08/12 03:31:08;;;;;;;12.23;7.60;;;;;;;;;;5072246;28;20501;-57
2021/08/12 03:33:35;;;;;;;12.83;8.10;;;;;;;;;;5075137;28;20460;-55
2021/08/12 03:36:12;;;;;;;10.07;7.50;;;;;;;;;;5072468;28;20561;-54
2021/08/12 03:38:41;;;;;;;9.70;6.73;;;;;;;;;;5055074;28;20450;-53
2021/08/12 03:41:08;;;;;;;14.17;7.63;;;;;;;;;;5055349;28;20442;-55
2021/08/12 03:44:07;;;;;;;10.13;7.77;;;;;;;;;;5055595;28;20472;-57
2021/08/12 03:46:36;;;;;;;8.80;7.20;;;;;;;;;;5055257;28;20496;-53
2021/08/12 03:49:03;;;;;;;9.77;7.60;;;;;;;;;;5054903;28;20462;-57
2021/08/12 03:51:31;;;;;;;10.00;7.13;;;;;;;;;;5055407;28;20493;-56
2021/08/12 03:53:59;;;;;;;13.47;6.43;;;;;;;;;;5056387;28;20488;-58
2021/08/12 03:56:26;;;;;;;10.67;7.10;;;;;;;;;;5056417;28;20457;-58
2021/08/12 03:59:01;;;;;;;9.83;8.00;;;;;;;;;;5040396;28;20453;-56
2021/08/12 04:01:30;;;;;;;11.10;7.57;;;;;;;;;;5076723;28;20676;-56
2021/08/12 04:04:07;;;;;;;10.53;7.30;;;;;;;;;;5076074;28;20469;-57
2021/08/12 04:06:37;;;;;;;12.77;6.97;;;;;;;;;;5067611;28;20480;-57
2021/08/12 04:09:04;;;;;;;8.30;7.03;;;;;;;;;;5075945;28;20464;-54
2021/08/12 04:11:32;;;;;;;10.80;6.93;;;;;;;;;;5072611;28;20543;-57
2021/08/12 04:13:59;;;;;;;11.13;7.30;;;;;;;;;;5075091;28;20485;-54
2021/08/12 04:16:54;;;;;;;19.63;8.13;;;;;;;;;;5075533;28;20452;-53
2021/08/12 04:19:25;;;;;;;15.77;8.63;;;;;;;;;;5074616;28;20496;-57
2021/08/12 04:21:53;;;;;;;13.43;8.90;;;;;;;;;;5075531;28;20448;-55
2021/08/12 04:24:28;;;;;;;9.47;7.50;;;;;;;;;;5075816;28;20453;-58
2021/08/12 04:26:58;;;;;;;13.03;8.57;;;;;;;;;;5075636;28;20480;-55
2021/08/12 04:29:25;;;;;;;14.60;7.80;;;;;;;;;;5075565;28;20459;-57
2021/08/12 04:31:53;;;;;;;10.40;6.70;;;;;;;;;;5074596;28;20484;-57
2021/08/12 04:34:21;;;;;;;8.63;6.90;;;;;;;;;;5075039;28;20445;-58
2021/08/12 04:36:54;;;;;;;13.00;7.00;;;;;;;;;;5075149;28;20499;-57
2021/08/12 04:39:25;;;;;;;9.87;7.40;;;;;;;;;;5075007;28;20459;-57
2021/08/12 04:41:52;;;;;;;11.87;9.10;;;;;;;;;;5074798;28;20480;-54
2021/08/12 04:44:19;;;;;;;10.90;7.50;;;;;;;;;;5058502;28;20556;-59
2021/08/12 04:46:46;;;;;;;9.60;7.60;;;;;;;;;;5053328;28;20500;-57
2021/08/12 04:52:19;;;;;;;10.73;7.90;;;;;;;;;;5061691;28;20420;-53
2021/08/12 04:54:47;;;;;;;15.70;6.80;;;;;;;;;;5061930;28;20514;-54
2021/08/12 04:57:16;;;;;;;10.90;6.87;;;;;;;;;;5059072;28;20457;-60
2021/08/12 04:59:43;;;;;;;8.47;6.87;;;;;;;;;;5050835;28;20453;-56
2021/08/12 05:02:11;;;;;;;8.10;6.37;;;;;;;;;;5053568;28;20464;-58
2021/08/12 05:04:38;;;;;;;14.00;7.70;;;;;;;;;;5052681;28;20445;-57
2021/08/12 05:07:06;;;;;;;12.17;6.93;;;;;;;;;;5053174;28;20970;-58
2021/08/12 05:09:36;;;;;;;13.57;7.43;;;;;;;;;;5064541;28;20522;-57
2021/08/12 05:12:04;;;;;;;11.40;8.00;;;;;;;;;;5071739;28;20551;-53
2021/08/12 05:14:36;;;;;;;10.80;7.20;;;;;;;;;;5070428;28;20457;-57
2021/08/12 05:17:04;;;;;;;10.43;7.70;;;;;;;;;;5052987;28;20504;-55
2021/08/12 05:19:54;;;;;;;15.73;9.47;;;;;;;;;;5052720;28;20435;-57
2021/08/12 05:22:22;;;;;;;9.70;6.73;;;;;;;;;;5053364;28;20492;-56
2021/08/12 05:24:51;;;;;;;11.33;8.50;;;;;;;;;;5053097;28;20466;-58
2021/08/12 05:27:20;;;;;;;11.10;7.83;;;;;;;;;;5053191;28;20485;-55
2021/08/12 05:29:48;;;;;;;14.23;8.43;;;;;;;;;;5053361;28;20461;-55
2021/08/12 05:32:15;;;;;;;10.93;7.80;;;;;;;;;;5053756;28;20466;-57
2021/08/12 05:34:53;;;;;;;16.53;8.07;;;;;;;;;;5053118;28;20541;-53
2021/08/12 05:37:21;;;;;;;12.77;8.60;;;;;;;;;;5053834;28;20558;-58
2021/08/12 05:39:48;;;;;;;12.43;8.90;;;;;;;;;;5063193;28;20491;-54
2021/08/12 05:42:24;;;;;;;8.97;7.67;;;;;;;;;;5074350;28;20448;-57
2021/08/12 05:44:53;;;;;;;14.30;9.03;;;;;;;;;;5073427;28;20457;-59
2021/08/12 05:47:23;;;;;;;11.03;7.67;;;;;;;;;;5073983;28;20499;-54
2021/08/12 05:49:54;;;;;;;11.23;7.97;;;;;;;;;;5073690;28;20499;-55
2021/08/12 05:52:23;;;;;;;12.83;9.23;;;;;;;;;;5073082;28;20528;-52
2021/08/12 05:55:05;;;;;;;12.63;7.93;;;;;;;;;;5074334;28;20457;-54
2021/08/12 05:57:40;;;;;;;10.23;7.57;;;;;;;;;;5073574;28;20444;-57
2021/08/12 06:00:11;;;;;;;12.40;8.33;;;;;;;;;;5073924;28;20449;-60
2021/08/12 06:02:40;;;;;;;10.43;8.23;;;;;;;;;;5073988;28;20453;-57
2021/08/12 06:05:14;;;;;;;12.70;9.30;;;;;;;;;;5074742;28;20464;-55
2021/08/12 06:07:42;;;;;;;15.03;8.30;;;;;;;;;;5076322;28;20504;-56
2021/08/12 06:10:09;;;;;;;10.97;8.60;;;;;;;;;;5076954;28;20671;-57
2021/08/12 06:12:45;;;;;;;14.60;8.70;;;;;;;;;;5076276;28;20511;-55
2021/08/12 06:15:12;;;;;;;11.50;9.57;;;;;;;;;;5077270;28;20494;-54
2021/08/12 06:17:42;;;;;;;15.73;8.50;;;;;;;;;;5077561;28;20491;-58
2021/08/12 06:20:10;;;;;;;16.33;9.70;;;;;;;;;;5089995;28;20459;-57
2021/08/12 06:22:38;;;;;;;13.80;8.77;;;;;;;;;;5076777;28;20456;-56
2021/08/12 06:25:05;;;;;;;15.80;9.40;;;;;;;;;;5077406;28;20421;-56
2021/08/12 06:27:47;;;;;;;12.40;8.83;;;;;;;;;;5077308;28;20579;-56
2021/08/12 06:30:21;;;;;;;12.03;9.60;;;;;;;;;;5078130;28;20453;-60
2021/08/12 06:32:50;;;;;;;14.70;8.00;;;;;;;;;;5076774;28;20478;-56
2021/08/12 06:35:22;;;;;;;13.67;9.27;;;;;;;;;;5077850;28;20476;-59
2021/08/12 06:37:52;;;;;;;11.67;8.10;;;;;;;;;;5079186;28;20493;-57
2021/08/12 06:40:20;;;;;;;12.50;9.87;;;;;;;;;;5077948;28;20556;-55
2021/08/12 06:42:49;;;;;;;12.67;8.87;;;;;;;;;;5077081;28;20559;-58
2021/08/12 06:45:18;;;;;;;12.20;8.47;;;;;;;;;;5077330;28;20467;-56
2021/08/12 06:47:46;;;;;;;11.77;8.50;;;;;;;;;;5077329;28;20496;-58
2021/08/12 06:50:43;;;;;;;14.60;9.67;;;;;;;;;;5078400;28;20447;-61
2021/08/12 06:53:16;;;;;;;12.80;9.03;;;;;;;;;;5073946;28;20446;-53
2021/08/12 06:55:45;;;;;;;10.87;8.37;;;;;;;;;;5066320;28;20464;-60
2021/08/12 06:58:14;;;;;;;16.43;9.00;;;;;;;;;;5082824;28;20472;-53
2021/08/12 07:00:44;;;;;;;11.87;9.07;;;;;;;;;;5070783;28;20460;-56
2021/08/12 07:03:32;;;;;;;12.20;8.10;;;;;;;;;;5079219;28;20482;-63
2021/08/12 07:05:59;;;;;;;10.33;8.27;;;;;;;;;;5075799;28;20527;-53
2021/08/12 07:08:27;;;;;;;11.20;7.83;;;;;;;;;;5078067;28;20477;-58
2021/08/12 07:11:07;;;;;;;10.10;8.50;;;;;;;;;;5077888;28;20484;-60
2021/08/12 07:13:36;;;;;;;11.70;9.70;;;;;;;;;;5079997;28;20681;-60
2021/08/12 07:16:03;;;;;;;9.47;7.90;;;;;;;;;;5077038;28;20460;-56
2021/08/12 07:21:34;;;;;;;15.90;9.20;;;;;;;;;;5076641;28;20419;-56
2021/08/12 07:24:02;;;;;;;14.53;7.87;;;;;;;;;;5076496;28;20491;-59
2021/08/12 07:26:29;;;;;;;11.40;8.17;;;;;;;;;;5076266;28;20483;-55
2021/08/12 07:28:57;;;;;;;14.67;9.20;;;;;;;;;;5076811;28;20492;-58
2021/08/12 07:31:35;;;;;;;12.13;9.30;;;;;;;;;;5076740;28;20421;-54
2021/08/12 07:34:03;;;;;;;9.77;8.20;;;;;;;;;;5076531;28;20452;-58
2021/08/12 07:36:30;;;;;;;11.27;9.13;;;;;;;;;;5076699;28;20448;-60
2021/08/12 07:39:19;;;;;;;12.93;7.73;;;;;;;;;;5076460;28;20704;-59
2021/08/12 07:41:47;;;;;;;14.73;9.17;;;;;;;;;;5076558;28;20480;-59
2021/08/12 07:44:17;;;;;;;13.23;9.33;;;;;;;;;;5077006;28;20453;-56
2021/08/12 07:49:48;;;;;;;11.50;8.70;;;;;;;;;;5066782;28;20483;-59
2021/08/12 07:52:17;;;;;;;15.40;9.20;;;;;;;;;;5076991;28;20472;-55
2021/08/12 07:54:50;;;;;;;11.10;7.87;;;;;;;;;;5076991;28;20452;-55
2021/08/12 07:57:19;;;;;;;9.13;8.07;;;;;;;;;;5077178;28;20461;-59
2021/08/12 07:59:50;;;;;;;12.17;8.20;;;;;;;;;;5058167;28;20521;-54
2021/08/12 08:11:14;;;;;;;10.87;9.23;;;;;;;;;;5076467;28;20419;-55
2021/08/12 08:13:43;;;;;;;9.73;7.40;;;;;;;;;;5076481;28;20456;-59
2021/08/12 08:16:29;;;;;;;11.20;8.77;;;;;;;;;;5070264;28;20454;-58
2021/08/12 08:18:58;;;;;;;10.07;8.20;;;;;;;;;;5070309;28;20472;-58
2021/08/12 08:21:28;;;;;;;10.80;8.97;;;;;;;;;;5076643;28;20473;-59
2021/08/12 08:24:05;;;;;;;14.33;8.53;;;;;;;;;;5076590;28;20429;-57
2021/08/12 08:26:33;;;;;;;10.60;7.60;;;;;;;;;;5070387;28;20521;-59
2021/08/12 08:29:00;;;;;;;10.73;8.50;;;;;;;;;;5074163;28;20489;-54
2021/08/12 08:31:28;;;;;;;16.30;9.07;;;;;;;;;;5057327;28;20476;-56
2021/08/12 08:33:56;;;;;;;16.80;8.87;;;;;;;;;;5055752;28;20461;-53
2021/08/12 08:36:45;;;;;;;12.23;8.73;;;;;;;;;;5055695;28;20462;-53
2021/08/12 08:39:14;;;;;;;11.93;8.80;;;;;;;;;;5067951;28;20480;-58
2021/08/12 08:41:42;;;;;;;13.80;9.60;;;;;;;;;;5075657;28;20464;-59
2021/08/12 08:44:19;;;;;;;10.90;8.10;;;;;;;;;;5068699;28;20525;-58
2021/08/12 08:46:49;;;;;;;10.77;9.33;;;;;;;;;;5094493;28;20452;-55
2021/08/12 08:49:18;;;;;;;13.13;8.90;;;;;;;;;;5087143;28;20485;-58
2021/08/12 08:52:12;;;;;;;19.07;9.67;;;;;;;;;;5063204;28;20442;-57
2021/08/12 08:54:41;;;;;;;10.33;8.80;;;;;;;;;;5055414;28;20460;-53
2021/08/12 08:57:11;;;;;;;11.80;10.60;;;;;;;;;;5062178;28;20516;-60
2021/08/12 09:02:51;;;;;;;13.37;9.40;;;;;;;;;;5073524;28;20471;-60
2021/08/12 09:05:18;;;;;;;16.63;8.40;;;;;;;;;;5075526;28;20445;-59
2021/08/12 09:10:51;;;;;;;12.73;8.90;;;;;;;;;;5073547;28;20556;-54
2021/08/12 09:13:22;;;;;;;14.40;9.83;;;;;;;;;;5075898;28;20476;-59
2021/08/12 09:15:53;;;;;;;16.93;8.77;;;;;;;;;;5076087;28;20524;-57
2021/08/12 09:18:21;;;;;;;16.60;9.73;;;;;;;;;;5075712;28;20444;-58
2021/08/12 09:20:50;;;;;;;15.23;10.43;;;;;;;;;;5076050;28;20522;-56
2021/08/12 09:23:44;;;;;;;17.70;10.60;;;;;;;;;;5075678;28;20425;-52
2021/08/12 09:26:22;;;;;;;11.80;8.57;;;;;;;;;;5075636;28;20643;-59
2021/08/12 09:28:49;;;;;;;13.60;9.17;;;;;;;;;;5073187;28;20729;-60
2021/08/12 09:32:00;;;;;;;16.73;8.70;;;;;;;;;;5055581;28;20454;-59
2021/08/12 09:34:41;;;;;;;12.13;9.27;;;;;;;;;;5072086;28;20473;-54
2021/08/12 09:37:12;;;;;;;12.23;8.93;;;;;;;;;;5070588;28;20469;-53
2021/08/12 09:39:46;;;;;;;13.17;10.10;;;;;;;;;;5075258;28;20528;-59
2021/08/12 09:42:17;;;;;;;13.77;9.60;;;;;;;;;;5079746;28;20484;-50
2021/08/12 09:45:31;;;;;;;10.23;8.10;;;;;;;;;;5062473;28;20444;-55
2021/08/12 09:48:09;;;;;;;15.20;9.47;;;;;;;;;;5079218;28;20476;-52
2021/08/12 09:51:01;;;;;;;11.13;9.87;;;;;;;;;;5078594;28;20421;-60
2021/08/12 09:53:29;;;;;;;10.87;8.57;;;;;;;;;;5078738;28;20726;-58
2021/08/12 09:56:07;;;;;;;13.27;9.00;;;;;;;;;;5078864;28;20433;-56
2021/08/12 09:58:41;;;;;;;9.57;7.20;;;;;;;;;;5067040;28;20654;-50
2021/08/12 10:01:18;;;;;;;10.80;5.90;;;;;;;;;;5058440;28;20469;-60
2021/08/12 10:03:46;;;;;;;8.43;6.60;;;;;;;;;;5058960;28;20938;-59
2021/08/12 10:06:21;;;;;;;11.03;7.13;;;;;;;;;;5057729;28;20465;-57
2021/08/12 10:08:49;;;;;;;8.80;6.70;;;;;;;;;;5056220;28;20489;-55
2021/08/12 10:11:17;;;;;;;11.20;6.97;;;;;;;;;;5080604;28;20443;-53
2021/08/12 10:13:46;;;;;;;11.50;7.97;;;;;;;;;;5097281;28;20457;-61
2021/08/12 10:16:19;;;;;;;10.13;7.07;;;;;;;;;;5097437;28;20455;-57
2021/08/12 10:18:47;;;;;;;8.57;6.20;;;;;;;;;;5097384;28;20460;-58
2021/08/12 10:21:16;;;;;;;7.67;6.70;;;;;;;;;;5058172;28;20480;-57
2021/08/12 10:23:53;;;;;;;13.77;6.27;;;;;;;;;;5058619;28;20721;-59
2021/08/12 10:26:32;;;;;;;11.33;7.00;;;;;;;;;;5074085;28;20472;-58
2021/08/12 10:29:05;;;;;;;16.10;6.67;;;;;;;;;;5078519;28;20497;-55
2021/08/12 10:31:34;;;;;;;11.70;7.37;;;;;;;;;;5078653;28;20484;-58
2021/08/12 10:34:03;;;;;;;8.77;5.50;;;;;;;;;;5077491;28;20457;-61
2021/08/12 10:36:49;;;;;;;9.00;6.57;;;;;;;;;;5066186;28;20468;-57
2021/08/12 10:39:21;;;;;;;9.43;5.50;;;;;;;;;;5063301;28;20477;-60
2021/08/12 10:41:51;;;;;;;7.33;4.10;;;;;;;;;;5068076;28;20465;-55
2021/08/12 10:44:34;;;;;;;5.43;4.17;;;;;;;;;;5078219;28;20534;-61
2021/08/12 10:47:03;;;;;;;8.60;5.27;;;;;;;;;;5058061;28;20484;-56
2021/08/12 10:49:33;;;;;;;9.73;6.33;;;;;;;;;;5079523;28;20550;-58
2021/08/12 10:52:05;;;;;;;6.17;4.93;;;;;;;;;;5095933;28;20444;-56
2021/08/12 10:54:37;;;;;;;6.97;4.27;;;;;;;;;;5076824;28;20483;-58
2021/08/12 11:00:33;;;;;;;9.20;5.67;;;;;;;;;;5064528;28;20495;-52
2021/08/12 11:03:06;;;;;;;7.50;6.07;;;;;;;;;;5072482;28;20460;-59
2021/08/12 11:06:15;;;;;;;7.17;4.90;;;;;;;;;;5093063;28;20471;-61
2021/08/12 11:09:02;;;;;;;8.40;4.37;;;;;;;;;;5077961;28;20481;-54
2021/08/12 11:14:55;;;;;;;11.03;7.57;;;;;;;;;;5078258;28;20431;-62
2021/08/12 11:17:50;;;;;;;8.97;5.40;;;;;;;;;;5078316;28;20472;-58
2021/08/12 11:20:38;;;;;;;7.17;5.70;;;;;;;;;;5077233;28;20456;-56
2021/08/12 11:23:23;;;;;;;8.27;6.10;;;;;;;;;;5075550;28;20484;-58
2021/08/12 11:25:57;;;;;;;8.83;6.00;;;;;;;;;;5064988;28;20445;-53
2021/08/12 11:28:43;;;;;;;9.83;7.07;;;;;;;;;;5076759;28;20488;-55
2021/08/12 11:31:10;;;;;;;10.87;6.83;;;;;;;;;;5076964;28;20517;-56
2021/08/12 11:33:52;;;;;;;13.43;8.20;;;;;;;;;;5076931;28;20450;-58
2021/08/12 11:36:24;;;;;;;8.83;6.20;;;;;;;;;;5076808;28;20468;-57
2021/08/12 11:38:55;;;;;;;10.10;5.97;;;;;;;;;;5068400;28;20636;-60
2021/08/12 11:43:56;;;;;;;9.47;5.70;;;;;;;;;;5075001;28;20499;-57
2021/08/12 11:49:14;;;;;;;22.70;19.93;;;;;;;;;;5074806;28;20480;-57
2021/08/12 11:52:00;;;;;;;9.47;7.00;;;;;;;;;;5076251;28;20446;-58
2021/08/12 11:54:31;;;;;;;8.30;6.00;;;;;;;;;;5076292;28;20464;-56
2021/08/12 12:00:06;;;;;;;11.40;7.70;;;;;;;;;;5041955;28;20473;-58
2021/08/12 12:02:34;;;;;;;14.43;5.10;;;;;;;;;;5035469;28;20471;-58
2021/08/12 12:08:14;;;;;;;11.93;6.73;;;;;;;;;;5035698;28;20423;-55
2021/08/12 12:14:04;;;;;;;7.93;5.57;;;;;;;;;;5036331;28;20418;-56
2021/08/12 12:16:31;;;;;;;9.53;6.73;;;;;;;;;;5067840;28;20484;-59
2021/08/12 12:18:58;;;;;;;7.77;6.47;;;;;;;;;;5075940;28;20441;-57
2021/08/12 12:21:49;;;;;;;11.83;6.10;;;;;;;;;;5075992;28;20468;-54
2021/08/12 12:24:23;;;;;;;13.23;7.70;;;;;;;;;;5073516;28;20475;-57
2021/08/12 12:27:05;;;;;;;10.50;6.60;;;;;;;;;;5076154;28;20463;-59
2021/08/12 12:32:36;;;;;;;9.50;5.87;;;;;;;;;;5077101;28;20736;-54
2021/08/12 12:35:06;;;;;;;8.27;6.00;;;;;;;;;;5076450;28;20500;-56
2021/08/12 12:38:10;;;;;;;6.33;5.37;;;;;;;;;;5075866;28;20544;-56
2021/08/12 12:40:41;;;;;;;10.83;5.70;;;;;;;;;;5072148;28;20453;-52
2021/08/12 12:43:14;;;;;;;9.07;5.30;;;;;;;;;;5076237;28;20429;-60
2021/08/12 12:46:13;;;;;;;7.77;5.50;;;;;;;;;;5075623;28;20448;-57
2021/08/12 12:48:45;;;;;;;7.70;5.23;;;;;;;;;;5057639;28;20881;-57
2021/08/12 12:51:25;;;;;;;8.63;5.00;;;;;;;;;;5064641;28;20465;-57
2021/08/12 12:54:00;;;;;;;7.80;5.17;;;;;;;;;;5087534;28;20501;-62
2021/08/12 12:56:36;;;;;;;9.13;5.77;;;;;;;;;;5076842;28;20568;-57
2021/08/12 12:59:14;;;;;;;9.30;5.83;;;;;;;;;;5076008;28;20559;-61
2021/08/12 13:01:56;;;;;;;8.43;6.43;;;;;;;;;;5076483;28;20532;-62
2021/08/12 13:04:33;;;;;;;6.80;5.60;;;;;;;;;;5072382;28;20499;-57
2021/08/12 13:07:02;;;;;;;9.23;5.90;;;;;;;;;;5074966;28;20453;-50
2021/08/12 13:09:33;;;;;;;11.53;6.47;;;;;;;;;;5073925;28;20531;-55
2021/08/12 13:12:20;;;;;;;6.80;5.50;;;;;;;;;;5070955;28;20526;-51
2021/08/12 13:14:47;;;;;;;9.93;7.00;;;;;;;;;;5053966;28;20593;-58
2021/08/12 13:17:30;;;;;;;8.27;5.93;;;;;;;;;;5059383;28;20460;-53
2021/08/12 13:20:14;;;;;;;10.83;6.23;;;;;;;;;;5074801;28;20451;-56
2021/08/12 13:22:49;;;;;;;9.33;4.53;;;;;;;;;;5066832;28;20452;-54
2021/08/12 13:25:19;;;;;;;9.00;6.00;;;;;;;;;;5073498;28;20440;-51
2021/08/12 13:27:47;;;;;;;10.90;6.53;;;;;;;;;;5071703;28;20875;-56
2021/08/12 13:30:16;;;;;;;11.70;6.87;;;;;;;;;;5065184;28;20485;-56
2021/08/12 13:32:45;;;;;;;8.17;4.87;;;;;;;;;;5072489;28;20480;-58
2021/08/12 13:35:17;;;;;;;7.37;5.10;;;;;;;;;;5061501;28;20493;-58
2021/08/12 13:37:45;;;;;;;8.57;5.10;;;;;;;;;;5074179;28;20465;-51
2021/08/12 13:40:13;;;;;;;10.23;5.60;;;;;;;;;;5074364;28;20456;-57
2021/08/12 13:42:41;;;;;;;8.00;4.80;;;;;;;;;;5073947;28;20457;-57
2021/08/12 13:45:09;;;;;;;6.80;4.60;;;;;;;;;;5073426;28;20523;-57
2021/08/12 13:47:36;;;;;;;7.50;4.47;;;;;;;;;;5073179;28;20476;-59
2021/08/12 13:50:04;;;;;;;8.13;5.30;;;;;;;;;;5074290;28;20500;-56
2021/08/12 13:52:34;;;;;;;11.23;7.00;;;;;;;;;;5057753;28;20461;-58
2021/08/12 13:55:02;;;;;;;6.90;4.07;;;;;;;;;;5074262;28;20544;-57
2021/08/12 13:57:31;;;;;;;7.63;6.00;;;;;;;;;;5072586;28;20852;-60
2021/08/12 14:00:24;;;;;;;6.33;4.80;;;;;;;;;;5072798;28;20528;-55
2021/08/12 14:02:52;;;;;;;6.73;5.00;;;;;;;;;;5073083;28;20471;-56
2021/08/12 14:05:22;;;;;;;8.37;5.90;;;;;;;;;;5073222;28;20758;-57
2021/08/12 14:07:57;;;;;;;12.07;7.07;;;;;;;;;;5073217;28;20483;-52
2021/08/12 14:10:24;;;;;;;10.87;8.47;;;;;;;;;;5074502;28;20522;-58
2021/08/12 14:12:52;;;;;;;8.70;6.00;;;;;;;;;;5074249;28;20447;-59
2021/08/12 14:15:32;;;;;;;7.90;5.40;;;;;;;;;;5073480;28;20487;-57
2021/08/12 14:18:01;;;;;;;8.17;5.13;;;;;;;;;;5053872;28;20461;-60
2021/08/12 14:20:30;;;;;;;10.10;6.60;;;;;;;;;;5060910;28;20528;-59
2021/08/12 14:23:23;;;;;;;10.67;7.37;;;;;;;;;;5074212;28;20440;-55
2021/08/12 14:25:52;;;;;;;7.70;6.67;;;;;;;;;;5073209;28;20465;-51
2021/08/12 14:28:20;;;;;;;8.43;5.97;;;;;;;;;;5076094;28;20470;-56
2021/08/12 14:30:54;;;;;;;8.17;5.63;;;;;;;;;;5065173;28;20800;-57
2021/08/12 14:33:24;;;;;;;7.90;6.17;;;;;;;;;;5072701;28;20465;-55
2021/08/12 14:36:00;;;;;;;8.10;5.60;;;;;;;;;;5073677;28;20535;-57
2021/08/12 14:39:00;;;;;;;8.80;5.27;;;;;;;;;;5080425;28;20464;-60
2021/08/12 14:41:32;;;;;;;6.57;5.27;;;;;;;;;;5072272;28;20863;-57
2021/08/12 14:44:00;;;;;;;36.90;26.70;;;;;;;;;;5075730;28;20484;-59
2021/08/12 14:46:27;;;;;;;8.37;6.00;;;;;;;;;;5076270;28;20461;-54
2021/08/12 14:48:55;;;;;;;8.70;6.50;;;;;;;;;;5075676;28;20491;-60
2021/08/12 14:51:23;;;;;;;7.87;6.70;;;;;;;;;;5075452;28;20537;-55
2021/08/12 14:53:51;;;;;;;14.33;6.67;;;;;;;;;;5075247;28;20464;-51
2021/08/12 14:56:19;;;;;;;9.20;5.80;;;;;;;;;;5075014;28;20449;-55
2021/08/12 14:58:49;;;;;;;9.30;5.87;;;;;;;;;;5074402;28;20499;-56
2021/08/12 15:01:19;;;;;;;7.97;5.10;;;;;;;;;;5088255;28;20573;-54
2021/08/12 15:03:47;;;;;;;12.80;7.50;;;;;;;;;;5076979;28;20472;-56
2021/08/12 15:06:28;;;;;;;13.37;8.13;;;;;;;;;;5076026;28;20546;-60
2021/08/12 15:08:56;;;;;;;104.03;16.40;;;;;;;;;;5074446;28;20453;-59
2021/08/12 15:11:23;;;;;;;7.83;6.00;;;;;;;;;;5073702;28;20515;-52
2021/08/12 15:13:58;;;;;;;7.23;5.90;;;;;;;;;;5074380;28;20467;-57
2021/08/12 15:16:27;;;;;;;11.30;6.20;;;;;;;;;;5074999;28;20523;-55
2021/08/12 15:18:58;;;;;;;9.00;6.63;;;;;;;;;;5076639;28;20445;-56
2021/08/12 15:21:34;;;;;;;11.47;7.30;;;;;;;;;;5091742;28;20455;-59
2021/08/12 15:24:03;;;;;;;10.17;6.33;;;;;;;;;;5070248;28;20494;-56
2021/08/12 15:26:37;;;;;;;8.67;6.07;;;;;;;;;;5060417;28;20435;-55
2021/08/12 15:29:20;;;;;;;8.37;6.03;;;;;;;;;;5055494;28;20488;-55
2021/08/12 15:31:49;;;;;;;9.67;6.47;;;;;;;;;;5061858;28;20475;-55
2021/08/12 15:34:20;;;;;;;8.00;6.10;;;;;;;;;;5068331;28;20462;-60
2021/08/12 15:36:51;;;;;;;11.07;7.80;;;;;;;;;;5055028;28;20704;-55
2021/08/12 15:39:21;;;;;;;7.13;6.20;;;;;;;;;;5058327;28;20525;-54
2021/08/12 15:42:13;;;;;;;9.43;6.43;;;;;;;;;;5057700;28;20461;-57
2021/08/12 15:44:41;;;;;;;8.93;6.20;;;;;;;;;;5063710;28;20441;-55
2021/08/12 15:47:10;;;;;;;10.17;6.47;;;;;;;;;;5074808;28;20457;-56
2021/08/12 15:49:38;;;;;;;9.37;6.93;;;;;;;;;;5074880;28;20496;-56
2021/08/12 15:52:05;;;;;;;10.50;6.37;;;;;;;;;;5073846;28;20536;-58
2021/08/12 15:54:33;;;;;;;8.07;5.30;;;;;;;;;;5074925;28;20464;-52
2021/08/12 15:57:13;;;;;;;8.00;5.80;;;;;;;;;;5072743;28;20457;-58
2021/08/12 16:02:40;;;;;;;12.20;6.47;;;;;;;;;;5074170;28;20448;-55